createdAt,value
2022-09-20T00:01:42.947Z,101478.19
2022-09-20T00:04:49.196Z,101476.47
2022-09-20T00:07:52.031Z,101486.25
2022-09-20T00:11:01.583Z,101478.34
2022-09-20T00:14:08.422Z,101489.84
2022-09-20T00:17:11.536Z,101488.13
2022-09-20T00:20:15.723Z,101487.25
2022-09-20T00:23:19.596Z,101488.19
2022-09-20T00:26:22.821Z,101490.84
2022-09-20T00:29:25.961Z,101489.97
2022-09-20T00:32:28.784Z,101496.19
2022-09-20T00:35:33.084Z,101496.19
2022-09-20T00:38:35.880Z,101493.50
2022-09-20T00:41:38.944Z,101488.19
2022-09-20T00:44:50.980Z,101494.41
2022-09-20T00:47:58.574Z,101497.09
2022-09-20T00:51:09.212Z,101493.53
2022-09-20T00:54:19.521Z,101492.66
2022-09-20T00:57:23.810Z,101498.94
2022-09-20T01:00:27.576Z,101499.84
2022-09-20T01:03:33.164Z,101497.19
2022-09-20T01:06:37.637Z,101496.34
2022-09-20T01:09:40.513Z,101487.47
2022-09-20T01:12:46.024Z,101493.69
2022-09-20T01:15:50.400Z,101496.34
2022-09-20T01:18:54.166Z,101501.69
2022-09-20T01:21:58.680Z,101494.53
2022-09-20T01:25:08.334Z,101499.00
2022-09-20T01:28:12.629Z,101490.13
2022-09-20T01:31:21.788Z,101492.81
2022-09-20T01:34:30.580Z,101493.72
2022-09-20T01:37:44.846Z,101491.06
2022-09-20T01:41:00.399Z,101500.88
2022-09-20T01:44:11.398Z,101499.97
2022-09-20T01:47:23.303Z,101506.22
2022-09-20T01:50:34.454Z,101503.56
2022-09-20T01:53:53.986Z,101506.22
2022-09-20T01:57:27.554Z,101497.38
2022-09-20T02:00:40.077Z,101500.91
2022-09-20T02:04:31.669Z,101508.03
2022-09-20T02:08:15.797Z,101512.50
2022-09-20T02:11:20.735Z,101504.50
2022-09-20T02:14:35.788Z,101520.47
2022-09-20T02:17:49.918Z,101514.28
2022-09-20T02:21:02.042Z,101518.72
2022-09-20T02:24:17.548Z,101511.69
2022-09-20T02:27:27.923Z,101514.34
2022-09-20T02:30:39.005Z,101524.13
2022-09-20T02:34:19.010Z,101523.25
2022-09-20T02:37:41.591Z,101526.84
2022-09-20T02:41:20.560Z,101532.19
2022-09-20T02:44:56.870Z,101529.44
2022-09-20T02:48:04.999Z,101533.91
2022-09-20T02:51:19.170Z,101533.91
2022-09-20T02:54:34.634Z,101533.91
2022-09-20T02:57:45.893Z,101542.84
2022-09-20T03:00:55.541Z,101538.41
2022-09-20T03:04:09.115Z,101546.41
2022-09-20T03:07:23.950Z,101545.50
2022-09-20T03:10:34.868Z,101549.06
2022-09-20T03:13:55.924Z,101542.03
2022-09-20T03:17:08.093Z,101549.13
2022-09-20T03:20:25.045Z,101551.78
2022-09-20T03:23:51.090Z,101550.00
2022-09-20T03:26:59.361Z,101555.34
2022-09-20T03:30:25.320Z,101550.00
2022-09-20T03:33:42.518Z,101553.59
2022-09-20T03:37:06.578Z,101553.59
2022-09-20T03:40:40.769Z,101553.59
2022-09-20T03:44:01.193Z,101568.69
2022-09-20T03:47:17.335Z,101563.34
2022-09-20T03:50:51.964Z,101568.75
2022-09-20T03:54:27.657Z,101565.22
2022-09-20T03:57:45.757Z,101570.53
2022-09-20T04:01:02.678Z,101563.44
2022-09-20T04:04:14.997Z,101566.09
2022-09-20T04:07:23.632Z,101572.34
2022-09-20T04:10:36.947Z,101573.19
2022-09-20T04:13:50.181Z,101578.53
2022-09-20T04:17:02.112Z,101581.19
2022-09-20T04:20:16.191Z,101578.59
2022-09-20T04:23:34.642Z,101576.81
2022-09-20T04:26:42.015Z,101588.31
2022-09-20T04:29:53.098Z,101579.50
2022-09-20T04:33:01.561Z,101583.00
2022-09-20T04:36:30.892Z,101581.28
2022-09-20T04:39:43.932Z,101579.50
2022-09-20T04:43:52.302Z,101592.81
2022-09-20T04:47:18.770Z,101600.81
2022-09-20T04:50:49.339Z,101598.13
2022-09-20T04:54:36.007Z,101604.38
2022-09-20T04:58:09.682Z,101602.59
2022-09-20T05:01:57.039Z,101605.28
2022-09-20T05:05:35.847Z,101610.59
2022-09-20T05:09:26.924Z,101615.94
2022-09-20T05:13:01.052Z,101624.88
2022-09-20T05:16:09.962Z,101608.97
2022-09-20T05:19:27.510Z,101621.47
2022-09-20T05:23:01.813Z,101628.72
2022-09-20T05:26:11.349Z,101626.13
2022-09-20T05:29:20.726Z,101626.19
2022-09-20T05:32:30.248Z,101637.78
2022-09-20T05:35:39.431Z,101643.13
2022-09-20T05:38:50.023Z,101635.13
2022-09-20T05:41:58.313Z,101649.28
2022-09-20T05:45:18.066Z,101647.50
2022-09-20T05:48:27.334Z,101648.44
2022-09-20T05:51:49.248Z,101648.44
2022-09-20T05:55:21.776Z,101658.16
2022-09-20T05:58:41.239Z,101649.28
2022-09-20T06:01:51.416Z,101659.09
2022-09-20T06:05:03.557Z,101661.75
2022-09-20T06:08:25.925Z,101659.09
2022-09-20T06:11:47.362Z,101661.75
2022-09-20T06:15:00.128Z,101663.53
2022-09-20T06:18:17.702Z,101668.84
2022-09-20T06:21:32.072Z,101675.06
2022-09-20T06:24:40.320Z,101674.19
2022-09-20T06:27:48.371Z,101677.72
2022-09-20T06:30:52.884Z,101675.91
2022-09-20T06:33:58.604Z,101675.06
2022-09-20T06:37:44.759Z,101688.31
2022-09-20T06:41:07.959Z,101685.72
2022-09-20T06:44:12.259Z,101682.16
2022-09-20T06:47:16.041Z,101685.72
2022-09-20T06:50:19.815Z,101689.28
2022-09-20T06:53:29.795Z,101694.59
2022-09-20T06:56:36.668Z,101696.38
2022-09-20T06:59:40.971Z,101688.38
2022-09-20T07:02:44.410Z,101685.72
2022-09-20T07:05:47.449Z,101687.44
2022-09-20T07:08:50.387Z,101688.31
2022-09-20T07:11:53.156Z,101692.75
2022-09-20T07:14:57.333Z,101692.75
2022-09-20T07:18:00.733Z,101687.44
2022-09-20T07:21:05.201Z,101692.81
2022-09-20T07:24:08.108Z,101696.38
2022-09-20T07:27:12.609Z,101696.38
2022-09-20T07:30:17.666Z,101699.03
2022-09-20T07:33:21.624Z,101699.94
2022-09-20T07:36:24.517Z,101700.81
2022-09-20T07:39:27.896Z,101710.56
2022-09-20T07:42:30.741Z,101707.00
2022-09-20T07:45:39.104Z,101707.91
2022-09-20T07:48:42.696Z,101715.00
2022-09-20T07:51:45.646Z,101719.38
2022-09-20T07:54:49.968Z,101721.16
2022-09-20T07:57:54.292Z,101717.66
2022-09-20T08:01:00.140Z,101724.72
2022-09-20T08:04:03.607Z,101730.09
2022-09-20T08:07:06.496Z,101734.53
2022-09-20T08:10:10.248Z,101738.06
2022-09-20T08:16:41.993Z,101745.13
2022-09-20T08:19:44.938Z,101741.63
2022-09-20T08:23:06.323Z,101745.19
2022-09-20T08:26:13.155Z,101741.63
2022-09-20T08:29:16.102Z,101749.59
2022-09-20T08:32:20.268Z,101755.78
2022-09-20T08:35:25.369Z,101748.66
2022-09-20T08:41:57.450Z,101756.66
2022-09-20T08:45:03.557Z,101751.34
2022-09-20T08:48:14.401Z,101751.34
2022-09-20T08:51:22.620Z,101745.13
2022-09-20T08:54:32.216Z,101749.59
2022-09-20T08:57:36.455Z,101746.94
2022-09-20T09:00:40.858Z,101754.94
2022-09-20T09:03:45.106Z,101760.25
2022-09-20T09:06:49.102Z,101758.41
2022-09-20T09:09:55.753Z,101756.66
2022-09-20T09:13:00.054Z,101758.41
2022-09-20T09:16:07.822Z,101758.41
2022-09-20T09:19:33.817Z,101756.59
2022-09-20T09:22:42.358Z,101758.41
2022-09-20T09:25:45.224Z,101759.25
2022-09-20T09:28:48.365Z,101759.25
2022-09-20T09:31:54.425Z,101755.75
2022-09-20T09:35:24.614Z,101763.75
2022-09-20T09:38:29.856Z,101756.66
2022-09-20T09:41:35.655Z,101756.66
2022-09-20T09:44:38.457Z,101757.53
2022-09-20T09:47:41.265Z,101768.19
2022-09-20T09:50:45.761Z,101764.59
2022-09-20T09:53:50.161Z,101764.59
2022-09-20T09:57:06.038Z,101769.06
2022-09-20T10:00:19.743Z,101760.13
2022-09-20T10:03:49.847Z,101757.47
2022-09-20T10:07:01.866Z,101748.59
2022-09-20T10:10:18.017Z,101750.38
2022-09-20T10:13:29.101Z,101754.81
2022-09-20T10:16:45.652Z,101759.25
2022-09-20T10:20:04.188Z,101760.13
2022-09-20T10:23:44.993Z,101761.91
2022-09-20T10:27:15.192Z,101754.81
2022-09-20T10:30:21.878Z,101759.25
2022-09-20T10:33:37.476Z,101756.56
2022-09-20T10:36:49.134Z,101754.75
2022-09-20T10:40:02.758Z,101759.22
2022-09-20T10:43:14.990Z,101758.28
2022-09-20T10:46:32.461Z,101768.94
2022-09-20T10:49:43.603Z,101778.72
2022-09-20T10:53:04.547Z,101772.53
2022-09-20T10:56:25.030Z,101771.66
2022-09-20T10:59:41.438Z,101775.22
2022-09-20T11:02:54.941Z,101772.53
2022-09-20T11:06:11.473Z,101777.00
2022-09-20T11:09:19.410Z,101772.53
2022-09-20T11:12:28.991Z,101779.59
2022-09-20T11:15:37.939Z,101772.53
2022-09-20T11:18:45.013Z,101773.38
2022-09-20T11:21:53.357Z,101789.34
2022-09-20T11:25:02.862Z,101789.34
2022-09-20T11:28:12.462Z,101794.66
2022-09-20T11:31:21.022Z,101794.66
2022-09-20T11:34:29.779Z,101797.31
2022-09-20T11:37:37.400Z,101797.31
2022-09-20T11:40:46.947Z,101806.22
2022-09-20T11:43:52.023Z,101815.09
2022-09-20T11:46:59.883Z,101816.88
2022-09-20T11:50:33.083Z,101823.06
2022-09-20T11:53:50.318Z,101823.97
2022-09-20T11:56:56.521Z,101823.06
2022-09-20T12:00:04.157Z,101832.78
2022-09-20T12:03:29.564Z,101829.16
2022-09-20T12:06:35.311Z,101819.34
2022-09-20T12:09:41.250Z,101817.56
2022-09-20T12:12:47.128Z,101814.00
2022-09-20T12:16:00.639Z,101819.25
2022-09-20T12:19:07.939Z,101820.06
2022-09-20T12:22:28.180Z,101838.66
2022-09-20T12:25:39.854Z,101838.66
2022-09-20T12:28:44.345Z,101838.66
2022-09-20T12:31:50.807Z,101842.19
2022-09-20T12:34:53.716Z,101847.47
2022-09-20T12:37:56.690Z,101835.88
2022-09-20T12:41:02.419Z,101850.97
2022-09-20T12:44:23.040Z,101872.22
2022-09-20T12:47:30.183Z,101874.81
2022-09-20T12:51:04.811Z,101869.50
2022-09-20T12:54:10.271Z,101873.91
2022-09-20T12:57:28.201Z,101869.47
2022-09-20T13:00:38.942Z,101868.53
2022-09-20T13:03:46.891Z,101863.19
2022-09-20T13:06:50.160Z,101864.97
2022-09-20T13:09:53.107Z,101852.50
2022-09-20T13:13:02.274Z,101851.56
2022-09-20T13:16:07.480Z,101857.78
2022-09-20T13:19:17.486Z,101852.41
2022-09-20T13:22:25.028Z,101861.28
2022-09-20T13:25:28.501Z,101859.44
2022-09-20T13:28:36.004Z,101855.81
2022-09-20T13:31:39.090Z,101858.50
2022-09-20T13:34:43.432Z,101861.97
2022-09-20T13:37:54.826Z,101860.19
2022-09-20T13:41:07.240Z,101861.06
2022-09-20T13:44:17.737Z,101856.63
2022-09-20T13:47:26.015Z,101848.63
2022-09-20T13:50:33.550Z,101864.56
2022-09-20T13:53:43.501Z,101870.75
2022-09-20T13:56:46.546Z,101865.47
2022-09-20T13:59:50.120Z,101869.00
2022-09-20T14:02:54.707Z,101875.28
2022-09-20T14:06:01.863Z,101878.78
2022-09-20T14:09:11.373Z,101879.72
2022-09-20T14:12:15.060Z,101877.94
2022-09-20T14:15:18.105Z,101886.81
2022-09-20T14:18:23.225Z,101887.72
2022-09-20T14:21:28.988Z,101881.50
2022-09-20T14:24:35.363Z,101880.63
2022-09-20T14:27:38.866Z,101879.78
2022-09-20T14:30:41.657Z,101881.56
2022-09-20T14:33:50.717Z,101880.69
2022-09-20T14:37:06.655Z,101883.34
2022-09-20T14:40:20.481Z,101889.56
2022-09-20T14:43:31.416Z,101901.13
2022-09-20T14:46:36.717Z,101903.84
2022-09-20T14:49:42.517Z,101918.03
2022-09-20T14:52:46.753Z,101922.47
2022-09-20T14:56:11.433Z,101924.25
2022-09-20T14:59:24.872Z,101927.81
2022-09-20T15:02:28.093Z,101931.38
2022-09-20T15:05:31.029Z,101933.19
2022-09-20T15:08:36.668Z,101940.31
2022-09-20T15:11:40.744Z,101944.75
2022-09-20T15:14:43.865Z,101944.75
2022-09-20T15:17:48.584Z,101945.69
2022-09-20T15:20:51.937Z,101953.69
2022-09-20T15:23:56.087Z,101961.69
2022-09-20T15:26:58.987Z,101963.47
2022-09-20T15:30:01.757Z,101969.66
2022-09-20T15:33:04.748Z,101960.78
2022-09-20T15:36:08.397Z,101955.47
2022-09-20T15:39:13.049Z,101960.78
2022-09-20T15:42:16.016Z,101966.13
2022-09-20T15:45:19.659Z,101960.78
2022-09-20T15:48:23.898Z,101963.47
2022-09-20T15:51:27.014Z,101961.69
2022-09-20T15:54:31.230Z,101973.22
2022-09-20T15:57:34.318Z,101971.50
2022-09-20T16:00:37.206Z,101971.44
2022-09-20T16:03:40.075Z,101982.16
2022-09-20T16:06:45.332Z,101978.63
2022-09-20T16:09:49.500Z,101981.28
2022-09-20T16:12:52.290Z,101980.41
2022-09-20T16:15:56.408Z,101981.28
2022-09-20T16:19:16.910Z,101986.59
2022-09-20T16:22:20.756Z,101979.50
2022-09-20T16:25:24.960Z,101990.16
2022-09-20T16:28:28.207Z,101989.28
2022-09-20T16:31:34.634Z,101986.66
2022-09-20T16:34:38.135Z,101984.84
2022-09-20T16:37:40.951Z,101992.00
2022-09-20T16:40:45.151Z,101999.97
2022-09-20T16:43:52.120Z,102003.53
2022-09-20T16:46:54.934Z,102003.53
2022-09-20T16:49:58.274Z,102007.09
2022-09-20T16:53:01.035Z,102015.09
2022-09-20T16:56:07.717Z,102023.06
2022-09-20T16:59:10.801Z,102018.66
2022-09-20T17:02:13.752Z,102024.84
2022-09-20T17:05:16.951Z,102029.28
2022-09-20T17:08:19.727Z,102036.38
2022-09-20T17:11:27.118Z,102039.97
2022-09-20T17:14:31.106Z,102040.91
2022-09-20T17:17:34.055Z,102046.22
2022-09-20T17:20:38.505Z,102043.56
2022-09-20T17:23:42.344Z,102050.66
2022-09-20T17:26:46.832Z,102048.00
2022-09-20T17:29:49.635Z,102056.03
2022-09-20T17:32:52.640Z,102057.78
2022-09-20T17:35:55.396Z,102068.44
2022-09-20T17:39:03.945Z,102075.53
2022-09-20T17:42:09.010Z,102081.75
2022-09-20T17:45:12.176Z,102089.75
2022-09-20T17:48:16.011Z,102090.63
2022-09-20T17:51:20.571Z,102089.75
2022-09-20T17:54:24.754Z,102092.41
2022-09-20T17:57:28.964Z,102088.84
2022-09-20T18:00:31.846Z,102082.63
2022-09-20T18:03:38.204Z,102095.00
2022-09-20T18:06:43.112Z,102094.19
2022-09-20T18:09:46.041Z,102093.34
2022-09-20T18:12:50.281Z,102102.19
2022-09-20T18:15:53.158Z,102105.72
2022-09-20T18:18:56.243Z,102103.88
2022-09-20T18:21:59.256Z,102104.75
2022-09-20T18:25:02.099Z,102107.38
2022-09-20T18:28:06.407Z,102105.53
2022-09-20T18:31:09.332Z,102109.97
2022-09-20T18:34:17.899Z,102112.59
2022-09-20T18:37:20.834Z,102111.69
2022-09-20T18:40:23.789Z,102121.47
2022-09-20T18:43:30.033Z,102124.94
2022-09-20T18:46:33.046Z,102128.44
2022-09-20T18:49:36.158Z,102126.69
2022-09-20T18:52:39.031Z,102132.88
2022-09-20T18:55:42.589Z,102134.66
2022-09-20T18:58:47.423Z,102133.72
2022-09-20T19:02:32.850Z,102133.69
2022-09-20T19:05:43.766Z,102133.69
2022-09-20T19:08:53.709Z,102145.19
2022-09-20T19:12:06.081Z,102144.25
2022-09-20T19:15:40.075Z,102144.25
2022-09-20T19:19:03.007Z,102157.53
2022-09-20T19:22:18.176Z,102146.88
2022-09-20T19:25:27.186Z,102153.97
2022-09-20T19:28:30.513Z,102147.75
2022-09-20T19:31:35.579Z,102154.84
2022-09-20T19:34:44.566Z,102157.50
2022-09-20T19:38:03.977Z,102161.91
2022-09-20T19:41:21.168Z,102156.56
2022-09-20T19:44:34.532Z,102161.91
2022-09-20T19:47:50.962Z,102168.06
2022-09-20T19:50:54.790Z,102173.38
2022-09-20T19:53:57.945Z,102166.28
2022-09-20T19:57:02.866Z,102172.47
2022-09-20T20:00:09.514Z,102178.72
2022-09-20T20:03:15.243Z,102176.94
2022-09-20T20:06:26.496Z,102177.88
2022-09-20T20:09:39.716Z,102172.56
2022-09-20T20:12:50.937Z,102176.16
2022-09-20T20:16:01.939Z,102181.47
2022-09-20T20:19:17.532Z,102193.03
2022-09-20T20:22:33.471Z,102201.09
2022-09-20T20:25:45.238Z,102190.47
2022-09-20T20:28:48.517Z,102191.38
2022-09-20T20:31:51.357Z,102193.16
2022-09-20T20:34:55.508Z,102189.59
2022-09-20T20:37:58.786Z,102181.66
2022-09-20T20:41:04.687Z,102193.16
2022-09-20T20:44:07.909Z,102203.00
2022-09-20T20:47:11.239Z,102218.97
2022-09-20T20:50:15.626Z,102221.63
2022-09-20T20:53:18.721Z,102220.81
2022-09-20T20:56:23.373Z,102225.25
2022-09-20T20:59:26.211Z,102227.06
2022-09-20T21:02:29.019Z,102231.50
2022-09-20T21:05:33.865Z,102231.50
2022-09-20T21:08:38.320Z,102231.59
2022-09-20T21:11:44.057Z,102246.63
2022-09-20T21:14:46.884Z,102244.00
2022-09-20T21:17:52.357Z,102239.56
2022-09-20T21:20:56.488Z,102252.00
2022-09-20T21:24:01.171Z,102252.00
2022-09-20T21:27:05.058Z,102247.56
2022-09-20T21:30:10.002Z,102252.88
2022-09-20T21:33:12.784Z,102242.22
2022-09-20T21:36:19.058Z,102240.50
2022-09-20T21:39:21.875Z,102243.16
2022-09-20T21:42:27.205Z,102249.41
2022-09-20T21:45:29.979Z,102256.53
2022-09-20T21:48:33.645Z,102247.66
2022-09-20T21:51:39.164Z,102254.72
2022-09-20T21:54:42.297Z,102248.56
2022-09-20T21:57:45.069Z,102247.66
2022-09-20T22:00:57.392Z,102261.88
2022-09-20T22:04:00.899Z,102256.53
2022-09-20T22:07:05.214Z,102253.00
2022-09-20T22:10:08.866Z,102259.22
2022-09-20T22:13:11.661Z,102259.22
2022-09-20T22:16:16.599Z,102269.03
2022-09-20T22:19:20.249Z,102277.88
2022-09-20T22:22:24.510Z,102272.59
2022-09-20T22:25:27.269Z,102285.91
2022-09-20T22:28:30.114Z,102274.38
2022-09-20T22:31:34.410Z,102274.38
2022-09-20T22:34:38.460Z,102272.63
2022-09-20T22:37:42.835Z,102273.47
2022-09-20T22:40:55.921Z,102277.97
2022-09-20T22:43:58.947Z,102275.28
2022-09-20T22:47:01.848Z,102278.81
2022-09-20T22:50:05.547Z,102279.75
2022-09-20T22:53:09.726Z,102282.41
2022-09-20T22:56:15.179Z,102273.53
2022-09-20T22:59:17.944Z,102270.91
2022-09-20T23:02:20.751Z,102277.13
2022-09-20T23:05:23.596Z,102279.78
2022-09-20T23:08:27.713Z,102280.72
2022-09-20T23:11:30.988Z,102276.28
2022-09-20T23:14:33.791Z,102281.63
2022-09-20T23:17:36.710Z,102284.28
2022-09-20T23:20:39.477Z,102285.19
2022-09-20T23:23:44.214Z,102282.50
2022-09-20T23:26:47.332Z,102287.84
2022-09-20T23:29:50.142Z,102286.06
2022-09-20T23:32:54.737Z,102291.38
2022-09-20T23:35:58.120Z,102296.75
2022-09-20T23:39:02.288Z,102306.50
2022-09-20T23:42:05.546Z,102304.75
2022-09-20T23:45:10.060Z,102313.63
2022-09-20T23:48:12.993Z,102303.00
2022-09-20T23:51:18.682Z,102297.69
2022-09-20T23:54:22.808Z,102297.69
2022-09-20T23:57:25.611Z,102303.00
